createdAt,value
2019-03-24T00:00:15.263Z,2.49
2019-03-24T00:01:15.252Z,2.37
2019-03-24T00:02:15.257Z,2.56
2019-03-24T00:03:15.309Z,2.35
2019-03-24T00:04:15.227Z,2.46
2019-03-24T00:05:15.863Z,2.41
2019-03-24T00:06:15.203Z,2.41
2019-03-24T00:07:15.191Z,2.53
2019-03-24T00:08:15.276Z,2.35
2019-03-24T00:09:15.195Z,2.34
2019-03-24T00:10:15.231Z,2.31
2019-03-24T00:11:16.876Z,2.34
2019-03-24T00:12:15.144Z,2.31
2019-03-24T00:13:15.222Z,2.22
2019-03-24T00:14:15.126Z,2.30
2019-03-24T00:15:25.417Z,2.30
2019-03-24T00:16:16.131Z,2.23
2019-03-24T00:17:15.109Z,2.20
2019-03-24T00:18:15.137Z,2.26
2019-03-24T00:19:15.065Z,2.22
2019-03-24T00:20:15.105Z,2.26
2019-03-24T00:21:15.053Z,2.27
2019-03-24T00:22:15.080Z,2.20
2019-03-24T00:23:15.032Z,2.15
2019-03-24T00:24:15.020Z,2.20
2019-03-24T00:25:15.007Z,2.23
2019-03-24T00:26:15.026Z,2.28
2019-03-24T00:27:15.025Z,2.33
2019-03-24T00:28:15.822Z,2.28
2019-03-24T00:29:14.973Z,2.37
2019-03-24T00:30:14.962Z,2.20
2019-03-24T00:31:14.956Z,2.31
2019-03-24T00:32:15.019Z,2.26
2019-03-24T00:33:14.935Z,2.26
2019-03-24T00:34:14.958Z,2.23
2019-03-24T00:35:14.929Z,2.20
2019-03-24T00:36:15.822Z,2.16
2019-03-24T00:37:14.894Z,2.19
2019-03-24T00:38:14.881Z,2.17
2019-03-24T00:39:14.894Z,2.12
2019-03-24T00:40:14.883Z,2.08
2019-03-24T00:41:15.376Z,1.98
2019-03-24T00:42:14.840Z,2.01
2019-03-24T00:43:14.882Z,2.08
2019-03-24T00:44:14.853Z,1.94
2019-03-24T00:45:15.320Z,1.82
2019-03-24T00:46:14.863Z,1.87
2019-03-24T00:47:14.785Z,1.80
2019-03-24T00:48:14.776Z,1.87
2019-03-24T00:49:15.334Z,1.89
2019-03-24T00:50:14.782Z,1.85
2019-03-24T00:51:14.772Z,1.83
2019-03-24T00:52:14.748Z,1.62
2019-03-24T00:53:14.730Z,1.64
2019-03-24T00:54:14.718Z,1.64
2019-03-24T00:55:15.309Z,1.62
2019-03-24T00:56:14.684Z,1.65
2019-03-24T00:57:14.745Z,1.65
2019-03-24T00:58:14.674Z,1.69
2019-03-24T00:59:14.691Z,1.61
2019-03-24T01:00:14.677Z,1.54
2019-03-24T01:01:15.307Z,1.51
2019-03-24T01:02:14.630Z,1.54
2019-03-24T01:03:14.725Z,1.42
2019-03-24T01:04:14.820Z,1.42
2019-03-24T01:05:15.326Z,1.47
2019-03-24T01:06:14.616Z,1.50
2019-03-24T01:07:14.580Z,1.39
2019-03-24T01:08:14.592Z,1.39
2019-03-24T01:09:14.596Z,1.33
2019-03-24T01:10:14.551Z,1.42
2019-03-24T01:11:16.325Z,1.28
2019-03-24T01:12:15.324Z,1.22
2019-03-24T01:13:14.516Z,1.36
2019-03-24T01:14:14.550Z,1.19
2019-03-24T01:15:14.497Z,1.19
2019-03-24T01:16:14.490Z,1.34
2019-03-24T01:17:14.505Z,1.33
2019-03-24T01:18:15.325Z,1.33
2019-03-24T01:19:14.483Z,1.26
2019-03-24T01:20:14.501Z,1.24
2019-03-24T01:21:14.449Z,1.25
2019-03-24T01:22:15.315Z,1.32
2019-03-24T01:23:14.416Z,1.33
2019-03-24T01:24:14.442Z,1.28
2019-03-24T01:25:14.388Z,1.26
2019-03-24T01:26:14.385Z,1.24
2019-03-24T01:27:15.314Z,1.24
2019-03-24T01:28:14.367Z,1.24
2019-03-24T01:29:19.374Z,1.21
2019-03-24T01:30:14.384Z,1.18
2019-03-24T01:31:15.314Z,1.22
2019-03-24T01:32:15.314Z,1.22
2019-03-24T01:33:15.309Z,1.19
2019-03-24T01:34:15.278Z,1.21
2019-03-24T01:35:14.434Z,1.06
2019-03-24T01:36:15.268Z,1.15
2019-03-24T01:37:14.307Z,1.12
2019-03-24T01:38:14.260Z,1.08
2019-03-24T01:39:16.829Z,1.07
2019-03-24T01:40:14.296Z,1.07
2019-03-24T01:41:14.850Z,1.08
2019-03-24T01:42:14.236Z,1.07
2019-03-24T01:43:14.206Z,1.14
2019-03-24T01:44:14.199Z,1.07
2019-03-24T01:45:14.218Z,1.03
2019-03-24T01:46:14.213Z,0.92
2019-03-24T01:47:14.209Z,0.89
2019-03-24T01:48:14.207Z,0.79
2019-03-24T01:49:14.181Z,0.82
2019-03-24T01:50:14.144Z,0.61
2019-03-24T01:51:14.162Z,0.65
2019-03-24T01:52:14.124Z,0.71
2019-03-24T01:53:14.110Z,0.60
2019-03-24T01:54:14.100Z,0.52
2019-03-24T01:55:14.114Z,0.52
2019-03-24T01:56:14.100Z,0.51
2019-03-24T01:57:14.066Z,0.57
2019-03-24T01:58:14.058Z,0.51
2019-03-24T01:59:16.860Z,0.67
2019-03-24T02:00:14.082Z,0.64
2019-03-24T02:01:14.809Z,0.70
2019-03-24T02:02:14.798Z,0.72
2019-03-24T02:03:14.010Z,0.64
2019-03-24T02:04:13.997Z,0.53
2019-03-24T02:05:14.030Z,0.60
2019-03-24T02:06:13.978Z,0.58
2019-03-24T02:07:14.824Z,0.51
2019-03-24T02:08:13.957Z,0.57
2019-03-24T02:09:13.946Z,0.41
2019-03-24T02:10:13.983Z,0.38
2019-03-24T02:11:13.960Z,0.41
2019-03-24T02:12:14.843Z,0.38
2019-03-24T02:13:13.913Z,0.36
2019-03-24T02:14:13.949Z,0.36
2019-03-24T02:15:13.888Z,0.49
2019-03-24T02:16:15.812Z,0.58
2019-03-24T02:17:13.874Z,0.53
2019-03-24T02:18:13.898Z,0.64
2019-03-24T02:19:13.844Z,0.60
2019-03-24T02:20:13.866Z,0.61
2019-03-24T02:21:14.807Z,0.52
2019-03-24T02:22:13.817Z,0.48
2019-03-24T02:23:13.815Z,0.49
2019-03-24T02:24:13.796Z,0.60
2019-03-24T02:25:15.873Z,0.65
2019-03-24T02:26:14.873Z,0.61
2019-03-24T02:27:13.762Z,0.57
2019-03-24T02:28:13.752Z,0.58
2019-03-24T02:30:23.501Z,0.45
2019-03-24T02:31:23.514Z,0.45
2019-03-24T02:32:23.476Z,0.43
2019-03-24T02:33:23.469Z,0.33
2019-03-24T02:34:23.457Z,0.31
2019-03-24T02:35:23.451Z,0.42
2019-03-24T02:36:23.484Z,0.34
2019-03-24T02:37:24.226Z,0.39
2019-03-24T02:38:24.239Z,0.38
2019-03-24T02:39:24.246Z,0.33
2019-03-24T02:40:23.413Z,0.25
2019-03-24T02:41:23.409Z,0.30
2019-03-24T02:42:23.406Z,0.31
2019-03-24T02:43:23.365Z,0.30
2019-03-24T02:44:24.193Z,0.25
2019-03-24T02:45:24.233Z,0.25
2019-03-24T02:46:24.897Z,0.16
2019-03-24T02:47:23.340Z,0.27
2019-03-24T02:48:23.351Z,0.21
2019-03-24T02:49:23.315Z,0.20
2019-03-24T02:50:23.302Z,0.25
2019-03-24T02:51:23.346Z,0.25
2019-03-24T02:52:23.279Z,0.30
2019-03-24T02:53:23.280Z,0.27
2019-03-24T02:54:23.284Z,0.34
2019-03-24T02:55:23.248Z,0.27
2019-03-24T02:56:23.265Z,0.30
2019-03-24T02:57:23.731Z,0.28
2019-03-24T02:58:23.243Z,0.27
2019-03-24T02:59:23.342Z,0.41
2019-03-24T03:00:23.227Z,0.43
2019-03-24T03:01:23.223Z,0.49
2019-03-24T03:02:23.178Z,0.41
2019-03-24T03:03:23.198Z,0.43
2019-03-24T03:04:23.179Z,0.28
2019-03-24T03:05:23.153Z,0.33
2019-03-24T03:06:23.781Z,0.21
2019-03-24T03:07:23.143Z,0.02
2019-03-24T03:08:23.139Z,0.06
2019-03-24T03:09:23.109Z,0.02
2019-03-24T03:10:23.093Z,-0.01
2019-03-24T03:11:23.490Z,-0.06
2019-03-24T03:12:23.424Z,-0.05
2019-03-24T03:13:23.269Z,-0.13
2019-03-24T03:14:23.293Z,-0.16
2019-03-24T03:15:23.251Z,-0.12
2019-03-24T03:16:37.568Z,-0.06
2019-03-24T03:17:24.229Z,-0.15
2019-03-24T03:18:23.300Z,-0.11
2019-03-24T03:19:23.285Z,-0.05
2019-03-24T03:20:23.964Z,-0.05
2019-03-24T03:21:23.980Z,-0.08
2019-03-24T03:22:24.010Z,-0.09
2019-03-24T03:23:24.004Z,-0.08
2019-03-24T03:24:23.211Z,-0.05
2019-03-24T03:25:23.173Z,-0.04
2019-03-24T03:26:23.416Z,-0.11
2019-03-24T03:27:22.974Z,-0.05
2019-03-24T03:28:23.003Z,-0.09
2019-03-24T03:29:22.956Z,-0.01
2019-03-24T03:30:22.959Z,-0.08
2019-03-24T03:31:23.055Z,-0.16
2019-03-24T03:32:22.959Z,-0.18
2019-03-24T03:33:22.938Z,-0.08
2019-03-24T03:34:23.780Z,-0.18
2019-03-24T03:35:22.901Z,-0.09
2019-03-24T03:36:22.970Z,-0.18
2019-03-24T03:37:22.868Z,-0.16
2019-03-24T03:38:22.877Z,-0.23
2019-03-24T03:39:22.854Z,-0.26
2019-03-24T03:40:22.875Z,-0.24
2019-03-24T03:41:22.961Z,-0.26
2019-03-24T03:42:22.856Z,-0.23
2019-03-24T03:43:22.829Z,-0.37
2019-03-24T03:44:24.746Z,-0.22
2019-03-24T03:45:22.802Z,-0.19
2019-03-24T03:46:22.878Z,-0.33
2019-03-24T03:47:22.773Z,-0.34
2019-03-24T03:48:22.774Z,-0.19
2019-03-24T03:49:22.809Z,-0.30
2019-03-24T03:50:22.731Z,-0.34
2019-03-24T03:51:22.819Z,-0.37
2019-03-24T03:52:22.723Z,-0.34
2019-03-24T03:53:22.735Z,-0.41
2019-03-24T03:54:22.769Z,-0.36
2019-03-24T03:55:23.284Z,-0.37
2019-03-24T03:56:22.692Z,-0.41
2019-03-24T03:57:22.697Z,-0.44
2019-03-24T03:58:22.655Z,-0.51
2019-03-24T03:59:22.749Z,-0.60
2019-03-24T04:00:22.640Z,-0.59
2019-03-24T04:01:22.635Z,-0.66
2019-03-24T04:02:23.267Z,-0.69
2019-03-24T04:03:22.612Z,-0.70
2019-03-24T04:04:22.810Z,-0.68
2019-03-24T04:05:22.590Z,-0.70
2019-03-24T04:06:22.622Z,-0.72
2019-03-24T04:07:22.544Z,-0.68
2019-03-24T04:08:22.561Z,-0.70
2019-03-24T04:09:22.540Z,-0.68
2019-03-24T04:10:22.565Z,-0.69
2019-03-24T04:11:22.609Z,-0.66
2019-03-24T04:12:22.531Z,-0.57
2019-03-24T04:13:22.517Z,-0.52
2019-03-24T04:14:22.515Z,-0.47
2019-03-24T04:15:22.483Z,-0.41
2019-03-24T04:16:22.571Z,-0.37
2019-03-24T04:17:22.478Z,-0.31
2019-03-24T04:18:22.471Z,-0.29
2019-03-24T04:19:22.459Z,-0.31
2019-03-24T04:20:22.448Z,-0.36
2019-03-24T04:21:22.428Z,-0.41
2019-03-24T04:22:22.478Z,-0.41
2019-03-24T04:23:22.417Z,-0.52
2019-03-24T04:24:22.414Z,-0.59
2019-03-24T04:25:23.281Z,-0.48
2019-03-24T04:26:23.281Z,-0.51
2019-03-24T04:27:22.380Z,-0.47
2019-03-24T04:28:24.263Z,-0.48
2019-03-24T04:29:22.316Z,-0.45
2019-03-24T04:30:22.401Z,-0.39
2019-03-24T04:31:22.286Z,-0.33
2019-03-24T04:32:22.768Z,-0.33
2019-03-24T04:33:22.270Z,-0.31
2019-03-24T04:34:23.239Z,-0.22
2019-03-24T04:35:22.266Z,-0.27
2019-03-24T04:36:22.247Z,-0.31
2019-03-24T04:37:22.254Z,-0.31
2019-03-24T04:38:22.214Z,-0.37
2019-03-24T04:39:22.205Z,-0.42
2019-03-24T04:40:22.238Z,-0.48
2019-03-24T04:41:22.737Z,-0.47
2019-03-24T04:42:22.208Z,-0.50
2019-03-24T04:43:22.178Z,-0.60
2019-03-24T04:44:22.169Z,-0.70
2019-03-24T04:45:22.150Z,-0.72
2019-03-24T04:46:22.173Z,-0.84
2019-03-24T04:47:22.147Z,-0.77
2019-03-24T04:48:22.740Z,-0.72
2019-03-24T04:49:22.106Z,-0.77
2019-03-24T04:50:22.100Z,-0.86
2019-03-24T04:52:36.084Z,-0.87
2019-03-24T04:53:35.324Z,-0.91
2019-03-24T04:54:35.311Z,-0.95
2019-03-24T04:55:35.340Z,-0.95
2019-03-24T04:56:36.083Z,-0.89
2019-03-24T04:57:35.301Z,-0.89
2019-03-24T04:58:35.292Z,-0.89
2019-03-24T04:59:35.254Z,-0.91
2019-03-24T05:00:35.250Z,-0.92
2019-03-24T05:01:35.249Z,-0.89
2019-03-24T05:02:35.272Z,-0.99
2019-03-24T05:03:36.082Z,-1.03
2019-03-24T05:04:36.076Z,-0.97
2019-03-24T05:05:37.154Z,-0.95
2019-03-24T05:06:35.230Z,-0.91
2019-03-24T05:08:43.979Z,-0.94
2019-03-24T05:09:45.697Z,-1.06
2019-03-24T05:10:43.950Z,-1.06
2019-03-24T05:11:43.899Z,-1.05
2019-03-24T05:12:44.147Z,-1.06
2019-03-24T05:13:43.888Z,-1.10
2019-03-24T05:14:43.879Z,-1.06
2019-03-24T05:15:45.702Z,-1.02
2019-03-24T05:16:44.676Z,-1.03
2019-03-24T05:17:43.847Z,-1.09
2019-03-24T05:18:43.858Z,-1.00
2019-03-24T05:19:44.678Z,-1.02
2019-03-24T05:20:43.818Z,-1.00
2019-03-24T05:21:43.811Z,-0.89
2019-03-24T05:22:43.819Z,-0.89
2019-03-24T05:23:46.038Z,-0.89
2019-03-24T05:24:43.767Z,-0.86
2019-03-24T05:25:44.669Z,-0.84
2019-03-24T05:26:43.754Z,-0.83
2019-03-24T05:27:43.773Z,-0.89
2019-03-24T05:28:43.745Z,-0.95
2019-03-24T05:29:43.723Z,-1.03
2019-03-24T05:30:43.719Z,-0.99
2019-03-24T05:31:43.701Z,-1.05
2019-03-24T05:32:43.743Z,-1.03
2019-03-24T05:33:43.812Z,-1.09
2019-03-24T05:34:43.668Z,-1.05
2019-03-24T05:35:43.665Z,-1.02
2019-03-24T05:36:43.696Z,-0.89
2019-03-24T05:37:43.636Z,-0.84
2019-03-24T05:38:43.658Z,-0.73
2019-03-24T05:39:43.656Z,-0.70
2019-03-24T05:40:43.631Z,-0.68
2019-03-24T05:41:43.602Z,-0.69
2019-03-24T05:42:43.615Z,-0.70
2019-03-24T05:43:43.603Z,-0.72
2019-03-24T05:44:43.623Z,-0.72
2019-03-24T05:45:43.594Z,-0.65
2019-03-24T05:46:43.590Z,-0.47
2019-03-24T05:47:43.547Z,-0.34
2019-03-24T05:48:43.610Z,-0.36
2019-03-24T05:49:43.520Z,-0.06
2019-03-24T05:50:43.537Z,0.02
2019-03-24T05:51:43.548Z,0.10
2019-03-24T05:52:43.492Z,0.21
2019-03-24T05:53:43.492Z,0.31
2019-03-24T05:54:43.473Z,0.46
2019-03-24T05:55:43.479Z,0.60
2019-03-24T05:56:43.452Z,0.71
2019-03-24T05:57:43.470Z,0.85
2019-03-24T05:58:43.435Z,0.90
2019-03-24T05:59:43.444Z,1.06
2019-03-24T06:00:46.226Z,1.22
2019-03-24T06:01:43.395Z,1.36
2019-03-24T06:02:43.428Z,1.36
2019-03-24T06:03:44.169Z,1.54
2019-03-24T06:04:43.545Z,1.68
2019-03-24T06:05:43.377Z,1.79
2019-03-24T06:06:43.419Z,1.93
2019-03-24T06:07:43.413Z,2.13
2019-03-24T06:08:43.338Z,2.13
2019-03-24T06:09:43.361Z,2.26
2019-03-24T06:10:44.190Z,2.37
2019-03-24T06:11:43.314Z,2.59
2019-03-24T06:12:43.291Z,2.58
2019-03-24T06:13:44.229Z,2.69
2019-03-24T06:14:43.291Z,2.73
2019-03-24T06:15:43.289Z,2.81
2019-03-24T06:16:45.193Z,2.89
2019-03-24T06:17:47.767Z,3.00
2019-03-24T06:18:43.236Z,3.02
2019-03-24T06:19:43.688Z,3.06
2019-03-24T06:20:45.206Z,3.00
2019-03-24T06:23:01.557Z,2.98
2019-03-24T06:24:04.764Z,2.91
2019-03-24T06:25:02.204Z,3.12
2019-03-24T06:26:01.518Z,3.00
2019-03-24T06:27:02.198Z,3.20
2019-03-24T06:28:01.479Z,3.34
2019-03-24T06:29:03.682Z,3.40
2019-03-24T06:30:01.451Z,3.62
2019-03-24T06:31:01.832Z,3.80
2019-03-24T06:32:01.431Z,3.96
2019-03-24T06:33:01.452Z,4.07
2019-03-24T06:34:01.474Z,4.16
2019-03-24T06:35:01.433Z,4.21
2019-03-24T06:36:02.230Z,4.25
2019-03-24T06:37:01.380Z,4.33
2019-03-24T06:38:01.427Z,4.39
2019-03-24T06:39:01.408Z,4.50
2019-03-24T06:40:03.042Z,4.64
2019-03-24T06:41:01.335Z,4.76
2019-03-24T06:42:01.343Z,4.84
2019-03-24T06:43:01.349Z,4.86
2019-03-24T06:44:01.308Z,5.10
2019-03-24T06:45:01.375Z,5.12
2019-03-24T06:46:01.299Z,5.45
2019-03-24T06:47:01.278Z,5.48
2019-03-24T06:48:01.716Z,5.63
2019-03-24T06:49:01.263Z,5.78
2019-03-24T06:50:01.243Z,5.95
2019-03-24T06:51:01.237Z,6.06
2019-03-24T06:52:02.210Z,6.26
2019-03-24T06:53:03.536Z,6.38
2019-03-24T06:54:04.153Z,6.51
2019-03-24T06:55:01.285Z,6.69
2019-03-24T06:56:01.258Z,6.90
2019-03-24T06:57:01.182Z,7.09
2019-03-24T06:58:02.745Z,7.13
2019-03-24T06:59:01.474Z,7.23
2019-03-24T07:00:03.707Z,7.37
2019-03-24T07:01:01.140Z,7.60
2019-03-24T07:02:01.126Z,7.69
2019-03-24T07:03:01.104Z,7.77
2019-03-24T07:04:01.133Z,7.92
2019-03-24T07:05:03.700Z,8.11
2019-03-24T07:06:01.079Z,8.20
2019-03-24T07:07:01.090Z,8.29
2019-03-24T07:08:01.073Z,8.32
2019-03-24T07:09:01.046Z,8.32
2019-03-24T07:10:02.725Z,8.54
2019-03-24T07:11:07.407Z,8.72
2019-03-24T07:12:02.062Z,8.78
2019-03-24T07:13:01.002Z,8.90
2019-03-24T07:14:02.726Z,9.06
2019-03-24T07:16:10.730Z,9.46
2019-03-24T07:17:10.722Z,9.49
2019-03-24T07:18:10.758Z,9.58
2019-03-24T07:19:11.492Z,9.71
2019-03-24T07:20:10.683Z,9.81
2019-03-24T07:21:10.707Z,9.96
2019-03-24T07:22:15.459Z,10.03
2019-03-24T07:23:10.814Z,10.28
2019-03-24T07:24:10.998Z,10.39
2019-03-24T07:25:10.643Z,10.47
2019-03-24T07:26:10.638Z,10.59
2019-03-24T07:27:10.620Z,10.71
2019-03-24T07:28:12.506Z,10.89
2019-03-24T07:29:10.602Z,11.06
2019-03-24T07:30:10.634Z,11.20
2019-03-24T07:31:10.578Z,11.38
2019-03-24T07:32:10.568Z,11.34
2019-03-24T07:33:10.587Z,11.50
2019-03-24T07:34:10.585Z,11.50
2019-03-24T07:35:10.592Z,11.65
2019-03-24T07:36:10.524Z,11.82
2019-03-24T07:37:10.508Z,12.02
2019-03-24T07:38:10.645Z,12.02
2019-03-24T07:39:10.493Z,12.15
2019-03-24T07:40:10.505Z,12.26
2019-03-24T07:41:10.473Z,12.27
2019-03-24T07:42:10.469Z,12.37
2019-03-24T07:43:10.446Z,12.39
2019-03-24T07:44:10.466Z,12.38
2019-03-24T07:45:10.454Z,12.59
2019-03-24T07:46:10.414Z,12.85
2019-03-24T07:47:10.409Z,12.85
2019-03-24T07:48:18.774Z,13.06
2019-03-24T07:49:11.400Z,13.17
2019-03-24T07:50:10.399Z,13.30
2019-03-24T07:51:10.362Z,13.43
2019-03-24T07:52:10.352Z,13.62
2019-03-24T07:53:11.171Z,13.88
2019-03-24T07:54:10.340Z,13.91
2019-03-24T07:55:10.355Z,13.94
2019-03-24T07:56:10.324Z,14.12
2019-03-24T07:57:10.297Z,14.28
2019-03-24T07:58:10.345Z,14.32
2019-03-24T07:59:10.284Z,14.49
2019-03-24T08:00:10.302Z,14.57
2019-03-24T08:01:10.265Z,14.65
2019-03-24T08:02:10.245Z,14.88
2019-03-24T08:03:10.239Z,14.93
2019-03-24T08:04:10.242Z,15.03
2019-03-24T08:05:10.964Z,15.19
2019-03-24T08:06:10.240Z,15.35
2019-03-24T08:07:10.195Z,15.49
2019-03-24T08:08:10.184Z,15.66
2019-03-24T08:09:10.337Z,15.78
2019-03-24T08:10:10.186Z,15.81
2019-03-24T08:11:10.151Z,15.97
2019-03-24T08:12:10.138Z,16.09
2019-03-24T08:13:10.126Z,16.04
2019-03-24T08:14:10.133Z,16.11
2019-03-24T08:15:10.109Z,16.15
2019-03-24T08:16:10.136Z,16.22
2019-03-24T08:17:10.145Z,16.40
2019-03-24T08:18:10.087Z,16.42
2019-03-24T08:19:10.074Z,16.11
2019-03-24T08:20:12.225Z,16.03
2019-03-24T08:21:10.042Z,16.23
2019-03-24T08:22:10.041Z,16.37
2019-03-24T08:23:10.052Z,16.15
2019-03-24T08:24:10.015Z,16.07
2019-03-24T08:25:10.008Z,16.15
2019-03-24T08:26:09.995Z,16.27
2019-03-24T08:27:09.982Z,16.20
2019-03-24T08:28:09.975Z,16.37
2019-03-24T08:29:09.988Z,16.44
2019-03-24T08:30:09.984Z,16.58
2019-03-24T08:31:09.940Z,16.75
2019-03-24T08:32:09.932Z,16.88
2019-03-24T08:33:09.920Z,17.10
2019-03-24T08:34:09.914Z,17.48
2019-03-24T08:35:10.023Z,17.67
2019-03-24T08:36:09.896Z,17.76
2019-03-24T08:37:09.877Z,17.91
2019-03-24T08:38:09.887Z,17.97
2019-03-24T08:39:09.860Z,18.27
2019-03-24T08:40:09.850Z,18.40
2019-03-24T08:41:09.859Z,18.74
2019-03-24T08:42:09.862Z,18.99
2019-03-24T08:43:09.816Z,19.29
2019-03-24T08:44:09.830Z,19.05
2019-03-24T08:45:09.802Z,19.18
2019-03-24T08:46:09.779Z,18.95
2019-03-24T08:47:09.772Z,19.20
2019-03-24T08:48:09.761Z,19.46
2019-03-24T08:49:09.784Z,19.46
2019-03-24T08:50:09.738Z,19.48
2019-03-24T08:51:09.780Z,19.70
2019-03-24T08:52:09.759Z,19.50
2019-03-24T08:53:09.866Z,19.50
2019-03-24T08:54:09.851Z,19.58
2019-03-24T08:55:09.699Z,19.46
2019-03-24T08:56:09.684Z,19.20
2019-03-24T08:57:09.668Z,19.20
2019-03-24T08:58:09.702Z,19.42
2019-03-24T08:59:09.652Z,19.33
2019-03-24T09:00:09.673Z,19.55
2019-03-24T09:01:09.631Z,19.87
2019-03-24T09:02:09.613Z,20.18
2019-03-24T09:03:09.601Z,20.39
2019-03-24T09:04:09.625Z,20.33
2019-03-24T09:05:09.625Z,19.98
2019-03-24T09:06:09.600Z,20.02
2019-03-24T09:07:09.564Z,19.73
2019-03-24T09:08:09.558Z,19.43
2019-03-24T09:09:09.552Z,19.20
2019-03-24T09:10:09.534Z,19.15
2019-03-24T09:11:09.563Z,18.99
2019-03-24T09:12:09.510Z,19.15
2019-03-24T09:13:09.499Z,19.18
2019-03-24T09:14:09.492Z,19.39
2019-03-24T09:15:09.482Z,19.51
2019-03-24T09:16:09.526Z,19.48
2019-03-24T09:17:09.458Z,19.73
2019-03-24T09:18:09.465Z,19.98
2019-03-24T09:19:09.445Z,19.70
2019-03-24T09:20:09.465Z,19.55
2019-03-24T09:21:09.422Z,19.54
2019-03-24T09:22:09.522Z,19.47
2019-03-24T09:23:10.626Z,19.58
2019-03-24T09:24:09.392Z,19.50
2019-03-24T09:25:09.373Z,19.51
2019-03-24T09:26:09.382Z,19.50
2019-03-24T09:27:09.356Z,19.42
2019-03-24T09:28:09.386Z,19.60
2019-03-24T09:29:09.363Z,19.66
2019-03-24T09:30:09.322Z,19.70
2019-03-24T09:31:09.320Z,19.94
2019-03-24T09:32:09.358Z,20.16
2019-03-24T09:33:09.284Z,20.27
2019-03-24T09:34:10.006Z,20.24
2019-03-24T09:35:09.326Z,20.30
2019-03-24T09:36:09.944Z,20.72
2019-03-24T09:37:09.269Z,20.98
2019-03-24T09:38:09.272Z,21.27
2019-03-24T09:39:09.252Z,21.09
2019-03-24T09:40:09.218Z,21.09
2019-03-24T09:41:09.206Z,21.06
2019-03-24T09:42:09.197Z,21.44
2019-03-24T09:43:09.220Z,21.48
2019-03-24T09:44:09.208Z,21.53
2019-03-24T09:45:09.184Z,21.51
2019-03-24T09:46:09.162Z,21.44
2019-03-24T09:47:09.145Z,21.94
2019-03-24T09:48:09.238Z,21.92
2019-03-24T09:49:09.133Z,21.83
2019-03-24T09:50:09.187Z,21.99
2019-03-24T09:51:09.112Z,22.22
2019-03-24T09:52:09.091Z,22.06
2019-03-24T09:53:09.085Z,21.60
2019-03-24T09:54:09.089Z,21.95
2019-03-24T09:55:09.056Z,22.32
2019-03-24T09:56:09.054Z,22.67
2019-03-24T09:57:09.037Z,22.53
2019-03-24T09:58:09.956Z,22.83
2019-03-24T09:59:09.069Z,22.52
2019-03-24T10:00:09.147Z,22.57
2019-03-24T10:01:09.032Z,22.67
2019-03-24T10:02:09.188Z,23.09
2019-03-24T10:03:09.487Z,22.84
2019-03-24T10:04:09.371Z,22.65
2019-03-24T10:05:08.983Z,23.01
2019-03-24T10:06:09.045Z,23.62
2019-03-24T10:07:09.122Z,24.01
2019-03-24T10:08:11.942Z,24.08
2019-03-24T10:09:09.804Z,23.60
2019-03-24T10:10:09.155Z,23.58
2019-03-24T10:11:08.968Z,23.97
2019-03-24T10:12:09.044Z,23.94
2019-03-24T10:13:09.960Z,24.08
2019-03-24T10:14:08.953Z,24.42
2019-03-24T10:15:09.513Z,24.41
2019-03-24T10:16:08.988Z,24.80
2019-03-24T10:17:09.607Z,25.05
2019-03-24T10:18:09.207Z,24.76
2019-03-24T10:19:13.912Z,25.06
2019-03-24T10:20:09.975Z,25.34
2019-03-24T10:21:08.818Z,25.28
2019-03-24T10:22:08.849Z,25.06
2019-03-24T10:23:08.825Z,24.90
2019-03-24T10:24:08.797Z,24.82
2019-03-24T10:25:08.804Z,24.85
2019-03-24T10:26:08.956Z,25.17
2019-03-24T10:27:08.875Z,25.65
2019-03-24T10:28:08.757Z,25.93
2019-03-24T10:29:08.765Z,26.09
2019-03-24T10:30:08.823Z,25.86
2019-03-24T10:31:08.729Z,26.27
2019-03-24T10:32:08.733Z,26.17
2019-03-24T10:33:08.665Z,26.25
2019-03-24T10:34:09.469Z,26.15
2019-03-24T10:35:08.670Z,26.37
2019-03-24T10:36:08.673Z,26.67
2019-03-24T10:37:09.503Z,26.87
2019-03-24T10:38:08.650Z,27.29
2019-03-24T10:39:08.641Z,27.51
2019-03-24T10:40:08.681Z,27.64
2019-03-24T10:41:08.670Z,27.76
2019-03-24T10:42:08.691Z,27.73
2019-03-24T10:43:08.663Z,28.13
2019-03-24T10:44:08.554Z,27.95
2019-03-24T10:45:08.546Z,27.47
2019-03-24T10:46:08.545Z,27.74
2019-03-24T10:47:08.633Z,28.09
2019-03-24T10:48:08.583Z,28.47
2019-03-24T10:49:09.124Z,28.85
2019-03-24T10:50:08.533Z,29.13
2019-03-24T10:51:08.547Z,29.04
2019-03-24T10:52:09.031Z,28.63
2019-03-24T10:53:09.026Z,28.32
2019-03-24T10:54:08.484Z,28.10
2019-03-24T10:55:11.150Z,28.28
2019-03-24T10:56:09.028Z,28.75
2019-03-24T10:57:11.553Z,29.08
2019-03-24T10:58:08.526Z,29.15
2019-03-24T10:59:09.019Z,29.44
2019-03-24T11:00:09.066Z,29.63
2019-03-24T11:01:09.092Z,29.87
2019-03-24T11:02:08.541Z,29.08
2019-03-24T11:03:08.377Z,28.60
2019-03-24T11:04:08.369Z,28.03
2019-03-24T11:05:08.439Z,27.43
2019-03-24T11:06:09.089Z,27.92
2019-03-24T11:07:10.115Z,28.32
2019-03-24T11:08:08.316Z,28.23
2019-03-24T11:09:08.351Z,28.73
2019-03-24T11:10:08.355Z,28.95
2019-03-24T11:11:11.071Z,28.62
2019-03-24T11:12:10.057Z,28.23
2019-03-24T11:13:08.524Z,27.36
2019-03-24T11:14:10.105Z,27.32
2019-03-24T11:15:08.302Z,27.66
2019-03-24T11:16:08.241Z,27.86
2019-03-24T11:17:10.066Z,28.36
2019-03-24T11:18:09.273Z,28.17
2019-03-24T11:19:08.225Z,28.23
2019-03-24T11:20:11.029Z,28.63
2019-03-24T11:21:08.940Z,29.33
2019-03-24T11:22:10.071Z,29.37
2019-03-24T11:23:09.041Z,29.23
2019-03-24T11:24:08.984Z,29.23
2019-03-24T11:25:09.654Z,29.26
2019-03-24T11:26:09.619Z,29.33
2019-03-24T11:27:08.138Z,29.34
2019-03-24T11:28:09.059Z,28.97
2019-03-24T11:29:08.156Z,29.11
2019-03-24T11:30:09.060Z,29.47
2019-03-24T11:31:09.452Z,30.00
2019-03-24T11:32:08.500Z,29.89
2019-03-24T11:33:09.650Z,29.22
2019-03-24T11:34:08.379Z,28.51
2019-03-24T11:35:08.069Z,28.22
2019-03-24T11:36:09.487Z,28.10
2019-03-24T11:37:08.219Z,28.23
2019-03-24T11:38:08.097Z,28.17
2019-03-24T11:39:08.007Z,28.48
2019-03-24T11:40:08.026Z,28.80
2019-03-24T11:41:07.997Z,28.81
2019-03-24T11:42:08.527Z,29.00
2019-03-24T11:43:08.217Z,29.49
2019-03-24T11:44:08.567Z,29.57
2019-03-24T11:45:08.582Z,29.94
2019-03-24T11:46:10.737Z,29.96
2019-03-24T11:47:08.002Z,29.87
2019-03-24T11:48:08.671Z,30.11
2019-03-24T11:49:07.922Z,30.71
2019-03-24T11:50:07.921Z,30.18
2019-03-24T11:51:07.991Z,29.84
2019-03-24T11:52:09.492Z,30.09
2019-03-24T11:53:08.495Z,30.38
2019-03-24T11:54:07.849Z,30.65
2019-03-24T11:55:07.840Z,30.75
2019-03-24T11:56:08.779Z,30.16
2019-03-24T11:57:11.498Z,29.71
2019-03-24T11:58:08.144Z,29.56
2019-03-24T12:00:17.560Z,29.56
2019-03-24T12:01:17.563Z,30.03
2019-03-24T12:02:17.541Z,30.34
2019-03-24T12:03:17.569Z,30.89
2019-03-24T12:04:17.526Z,31.15
2019-03-24T12:05:17.505Z,31.12
2019-03-24T12:06:17.500Z,30.61
2019-03-24T12:07:17.492Z,30.53
2019-03-24T12:08:17.528Z,30.00
2019-03-24T12:09:17.468Z,30.08
2019-03-24T12:10:17.459Z,29.89
2019-03-24T12:11:17.443Z,30.07
2019-03-24T12:12:17.442Z,30.40
2019-03-24T12:13:17.445Z,30.72
2019-03-24T12:14:17.543Z,30.50
2019-03-24T12:15:17.400Z,30.23
2019-03-24T12:16:17.393Z,30.59
2019-03-24T12:17:17.387Z,31.12
2019-03-24T12:18:17.374Z,30.96
2019-03-24T12:19:17.367Z,30.75
2019-03-24T12:20:17.383Z,30.91
2019-03-24T12:21:17.354Z,31.28
2019-03-24T12:22:17.344Z,31.57
2019-03-24T12:23:17.362Z,31.75
2019-03-24T12:24:17.323Z,32.22
2019-03-24T12:25:17.314Z,32.25
2019-03-24T12:26:17.315Z,31.15
2019-03-24T12:27:17.294Z,30.89
2019-03-24T12:28:17.339Z,31.26
2019-03-24T12:29:17.266Z,31.15
2019-03-24T12:30:17.267Z,31.01
2019-03-24T12:31:17.252Z,29.57
2019-03-24T12:32:17.238Z,29.28
2019-03-24T12:33:17.262Z,28.82
2019-03-24T12:34:17.244Z,29.59
2019-03-24T12:35:17.241Z,29.70
2019-03-24T12:36:17.219Z,29.89
2019-03-24T12:37:17.231Z,30.14
2019-03-24T12:38:17.253Z,30.14
2019-03-24T12:39:17.211Z,30.37
2019-03-24T12:40:17.199Z,30.26
2019-03-24T12:41:17.149Z,30.52
2019-03-24T12:42:17.188Z,30.33
2019-03-24T12:43:19.679Z,30.33
2019-03-24T12:44:17.124Z,30.69
2019-03-24T12:45:17.115Z,30.80
2019-03-24T12:46:17.106Z,30.16
2019-03-24T12:47:17.097Z,29.60
2019-03-24T12:48:17.139Z,29.55
2019-03-24T12:49:17.098Z,29.52
2019-03-24T12:50:17.057Z,30.09
2019-03-24T12:51:17.058Z,29.92
2019-03-24T12:52:17.041Z,29.84
2019-03-24T12:53:17.074Z,30.08
2019-03-24T12:54:17.068Z,30.12
2019-03-24T12:55:17.016Z,30.21
2019-03-24T12:56:17.005Z,30.57
2019-03-24T12:57:17.000Z,30.38
2019-03-24T12:58:16.985Z,29.77
2019-03-24T12:59:17.008Z,29.59
2019-03-24T13:00:16.958Z,29.97
2019-03-24T13:01:16.955Z,29.94
2019-03-24T13:02:16.945Z,30.05
2019-03-24T13:03:16.936Z,29.57
2019-03-24T13:04:16.939Z,29.33
2019-03-24T13:05:16.982Z,29.72
2019-03-24T13:06:16.903Z,29.89
2019-03-24T13:07:16.921Z,29.66
2019-03-24T13:08:16.883Z,29.68